sensor_id;sensor_type;location;lat;lon;timestamp;temperature;humidity
26745;DHT22;14342;50.960;13.880;2022-12-18T00:00:58;-3.50;99.90
26745;DHT22;14342;50.960;13.880;2022-12-18T00:02:00;-3.50;99.90
26745;DHT22;14342;50.960;13.880;2022-12-18T00:03:01;-3.40;99.90
26745;DHT22;14342;50.960;13.880;2022-12-18T00:04:06;-3.40;99.90
26745;DHT22;14342;50.960;13.880;2022-12-18T00:05:08;-3.40;99.90
26745;DHT22;14342;50.960;13.880;2022-12-18T00:06:09;-3.30;99.90
26745;DHT22;14342;50.960;13.880;2022-12-18T00:07:10;-3.30;99.90
26745;DHT22;14342;50.960;13.880;2022-12-18T00:08:13;-3.40;99.90
26745;DHT22;14342;50.960;13.880;2022-12-18T00:09:13;-3.40;99.90
26745;DHT22;14342;50.960;13.880;2022-12-18T00:10:15;-3.40;99.90
26745;DHT22;14342;50.960;13.880;2022-12-18T00:11:18;-3.40;99.90
26745;DHT22;14342;50.960;13.880;2022-12-18T00:12:19;-3.50;99.90
26745;DHT22;14342;50.960;13.880;2022-12-18T00:13:20;-3.50;99.90
26745;DHT22;14342;50.960;13.880;2022-12-18T00:14:21;-3.60;99.90
26745;DHT22;14342;50.960;13.880;2022-12-18T00:15:22;-3.70;99.90
26745;DHT22;14342;50.960;13.880;2022-12-18T00:16:24;-3.70;99.90
26745;DHT22;14342;50.960;13.880;2022-12-18T00:17:26;-3.70;99.90
26745;DHT22;14342;50.960;13.880;2022-12-18T00:18:26;-3.80;99.90
26745;DHT22;14342;50.960;13.880;2022-12-18T00:19:28;-3.80;99.90
26745;DHT22;14342;50.960;13.880;2022-12-18T00:20:28;-3.80;99.90
26745;DHT22;14342;50.960;13.880;2022-12-18T00:21:31;-3.90;99.90
26745;DHT22;14342;50.960;13.880;2022-12-18T00:22:32;-3.90;99.90
26745;DHT22;14342;50.960;13.880;2022-12-18T00:23:35;-4.10;99.90
26745;DHT22;14342;50.960;13.880;2022-12-18T00:24:35;-4.20;99.90
26745;DHT22;14342;50.960;13.880;2022-12-18T00:25:37;-4.20;99.90
26745;DHT22;14342;50.960;13.880;2022-12-18T00:26:38;-4.30;99.90
26745;DHT22;14342;50.960;13.880;2022-12-18T00:27:40;-4.40;99.90
26745;DHT22;14342;50.960;13.880;2022-12-18T00:28:40;-4.60;99.90
26745;DHT22;14342;50.960;13.880;2022-12-18T00:29:42;-4.80;99.90
26745;DHT22;14342;50.960;13.880;2022-12-18T00:30:43;-4.90;99.90
26745;DHT22;14342;50.960;13.880;2022-12-18T00:31:44;-4.90;99.90
26745;DHT22;14342;50.960;13.880;2022-12-18T00:32:45;-5.00;99.90
26745;DHT22;14342;50.960;13.880;2022-12-18T00:33:46;-5.00;99.90
26745;DHT22;14342;50.960;13.880;2022-12-18T00:34:47;-5.10;99.90
26745;DHT22;14342;50.960;13.880;2022-12-18T00:35:49;-5.10;99.90
26745;DHT22;14342;50.960;13.880;2022-12-18T00:36:50;-5.10;99.90
26745;DHT22;14342;50.960;13.880;2022-12-18T00:37:51;-5.00;99.90
26745;DHT22;14342;50.960;13.880;2022-12-18T00:38:54;-5.00;99.90
26745;DHT22;14342;50.960;13.880;2022-12-18T00:39:56;-5.00;99.90
26745;DHT22;14342;50.960;13.880;2022-12-18T00:40:56;-5.00;99.90
26745;DHT22;14342;50.960;13.880;2022-12-18T00:41:58;-4.80;99.90
26745;DHT22;14342;50.960;13.880;2022-12-18T00:43:17;-5.00;99.90
26745;DHT22;14342;50.960;13.880;2022-12-18T00:44:18;-5.00;99.90
26745;DHT22;14342;50.960;13.880;2022-12-18T00:45:19;-4.70;99.90
26745;DHT22;14342;50.960;13.880;2022-12-18T00:46:20;-4.90;99.90
26745;DHT22;14342;50.960;13.880;2022-12-18T00:47:21;-4.70;99.90
26745;DHT22;14342;50.960;13.880;2022-12-18T00:48:22;-4.60;99.90
26745;DHT22;14342;50.960;13.880;2022-12-18T00:49:23;-4.40;99.90
26745;DHT22;14342;50.960;13.880;2022-12-18T00:50:25;-4.30;99.90
26745;DHT22;14342;50.960;13.880;2022-12-18T00:51:25;-4.20;99.90
26745;DHT22;14342;50.960;13.880;2022-12-18T00:52:27;-4.30;99.90
26745;DHT22;14342;50.960;13.880;2022-12-18T00:53:28;-4.30;99.90
26745;DHT22;14342;50.960;13.880;2022-12-18T00:54:31;-4.30;99.90
26745;DHT22;14342;50.960;13.880;2022-12-18T00:55:31;-4.30;99.90
26745;DHT22;14342;50.960;13.880;2022-12-18T00:56:34;-4.40;99.90
26745;DHT22;14342;50.960;13.880;2022-12-18T00:57:35;-4.40;99.90
26745;DHT22;14342;50.960;13.880;2022-12-18T00:58:36;-4.30;99.90
26745;DHT22;14342;50.960;13.880;2022-12-18T00:59:37;-4.30;99.90
26745;DHT22;14342;50.960;13.880;2022-12-18T01:00:38;-4.20;99.90
26745;DHT22;14342;50.960;13.880;2022-12-18T01:01:39;-4.10;99.90
26745;DHT22;14342;50.960;13.880;2022-12-18T01:02:41;-4.00;99.90
26745;DHT22;14342;50.960;13.880;2022-12-18T01:03:41;-3.90;99.90
26745;DHT22;14342;50.960;13.880;2022-12-18T01:04:45;-3.70;99.90
26745;DHT22;14342;50.960;13.880;2022-12-18T01:05:46;-3.80;99.90
26745;DHT22;14342;50.960;13.880;2022-12-18T01:06:47;-3.70;99.90
26745;DHT22;14342;50.960;13.880;2022-12-18T01:07:48;-3.60;99.90
26745;DHT22;14342;50.960;13.880;2022-12-18T01:08:49;-3.50;99.90
26745;DHT22;14342;50.960;13.880;2022-12-18T01:09:51;-3.50;99.90
26745;DHT22;14342;50.960;13.880;2022-12-18T01:10:53;-3.60;99.90
26745;DHT22;14342;50.960;13.880;2022-12-18T01:11:53;-3.80;99.90
26745;DHT22;14342;50.960;13.880;2022-12-18T01:12:55;-4.00;99.90
26745;DHT22;14342;50.960;13.880;2022-12-18T01:13:56;-4.20;99.90
26745;DHT22;14342;50.960;13.880;2022-12-18T01:14:57;-4.30;99.90
26745;DHT22;14342;50.960;13.880;2022-12-18T01:15:58;-4.30;99.90
26745;DHT22;14342;50.960;13.880;2022-12-18T01:16:59;-4.30;99.90
26745;DHT22;14342;50.960;13.880;2022-12-18T01:18:02;-4.30;99.90
26745;DHT22;14342;50.960;13.880;2022-12-18T01:19:04;-4.50;99.90
26745;DHT22;14342;50.960;13.880;2022-12-18T01:20:05;-4.60;99.90
26745;DHT22;14342;50.960;13.880;2022-12-18T01:21:07;-4.80;99.90
26745;DHT22;14342;50.960;13.880;2022-12-18T01:22:08;-4.90;99.90
26745;DHT22;14342;50.960;13.880;2022-12-18T01:23:10;-5.00;99.90
26745;DHT22;14342;50.960;13.880;2022-12-18T01:24:10;-5.10;99.90
26745;DHT22;14342;50.960;13.880;2022-12-18T01:25:14;-5.20;99.90
26745;DHT22;14342;50.960;13.880;2022-12-18T01:26:15;-5.30;99.90
26745;DHT22;14342;50.960;13.880;2022-12-18T01:27:17;-5.40;99.90
26745;DHT22;14342;50.960;13.880;2022-12-18T01:28:17;-5.50;99.90
26745;DHT22;14342;50.960;13.880;2022-12-18T01:29:19;-5.70;99.90
26745;DHT22;14342;50.960;13.880;2022-12-18T01:30:19;-5.70;99.90
26745;DHT22;14342;50.960;13.880;2022-12-18T01:31:21;-5.80;99.90
26745;DHT22;14342;50.960;13.880;2022-12-18T01:32:22;-5.90;99.90
26745;DHT22;14342;50.960;13.880;2022-12-18T01:33:24;-5.90;99.90
26745;DHT22;14342;50.960;13.880;2022-12-18T01:34:24;-5.80;99.90
26745;DHT22;14342;50.960;13.880;2022-12-18T01:35:26;-6.10;99.90
26745;DHT22;14342;50.960;13.880;2022-12-18T01:36:27;-6.30;99.90
26745;DHT22;14342;50.960;13.880;2022-12-18T01:37:29;-6.20;99.90
26745;DHT22;14342;50.960;13.880;2022-12-18T01:38:30;-6.10;99.90
26745;DHT22;14342;50.960;13.880;2022-12-18T01:39:32;-5.90;99.90
26745;DHT22;14342;50.960;13.880;2022-12-18T01:40:35;-6.00;99.90
26745;DHT22;14342;50.960;13.880;2022-12-18T01:41:35;-6.10;99.90
26745;DHT22;14342;50.960;13.880;2022-12-18T01:42:51;-6.10;99.90
26745;DHT22;14342;50.960;13.880;2022-12-18T01:43:53;-6.10;99.90
26745;DHT22;14342;50.960;13.880;2022-12-18T01:44:56;-6.00;99.90
26745;DHT22;14342;50.960;13.880;2022-12-18T01:45:58;-5.80;99.90
26745;DHT22;14342;50.960;13.880;2022-12-18T01:46:59;-5.40;99.90
26745;DHT22;14342;50.960;13.880;2022-12-18T01:48:02;-5.40;99.90
26745;DHT22;14342;50.960;13.880;2022-12-18T01:49:04;-5.20;99.90
26745;DHT22;14342;50.960;13.880;2022-12-18T01:50:06;-5.10;99.90
26745;DHT22;14342;50.960;13.880;2022-12-18T01:51:09;-4.90;99.90
26745;DHT22;14342;50.960;13.880;2022-12-18T01:52:10;-4.70;99.90
26745;DHT22;14342;50.960;13.880;2022-12-18T01:53:13;-4.50;99.90
26745;DHT22;14342;50.960;13.880;2022-12-18T01:54:14;-4.40;99.90
26745;DHT22;14342;50.960;13.880;2022-12-18T01:55:16;-4.30;99.90
26745;DHT22;14342;50.960;13.880;2022-12-18T01:56:20;-4.30;99.90
26745;DHT22;14342;50.960;13.880;2022-12-18T01:57:22;-4.20;99.90
26745;DHT22;14342;50.960;13.880;2022-12-18T01:58:24;-4.20;99.90
26745;DHT22;14342;50.960;13.880;2022-12-18T01:59:28;-4.20;99.90
26745;DHT22;14342;50.960;13.880;2022-12-18T02:00:30;-4.20;99.90
26745;DHT22;14342;50.960;13.880;2022-12-18T02:01:31;-4.10;99.90
26745;DHT22;14342;50.960;13.880;2022-12-18T02:02:32;-4.10;99.90
26745;DHT22;14342;50.960;13.880;2022-12-18T02:03:34;-4.10;99.90
26745;DHT22;14342;50.960;13.880;2022-12-18T02:04:34;-4.00;99.90
26745;DHT22;14342;50.960;13.880;2022-12-18T02:05:41;-3.90;99.90
26745;DHT22;14342;50.960;13.880;2022-12-18T02:06:43;-3.90;99.90
26745;DHT22;14342;50.960;13.880;2022-12-18T02:07:46;-3.70;99.90
26745;DHT22;14342;50.960;13.880;2022-12-18T02:08:51;-3.80;99.90
26745;DHT22;14342;50.960;13.880;2022-12-18T02:09:56;-3.80;99.90
26745;DHT22;14342;50.960;13.880;2022-12-18T02:11:01;-3.90;99.90
26745;DHT22;14342;50.960;13.880;2022-12-18T02:12:09;-3.90;99.90
26745;DHT22;14342;50.960;13.880;2022-12-18T02:13:12;-3.90;99.90
26745;DHT22;14342;50.960;13.880;2022-12-18T02:14:21;-4.00;99.90
26745;DHT22;14342;50.960;13.880;2022-12-18T02:15:24;-4.20;99.90
26745;DHT22;14342;50.960;13.880;2022-12-18T02:16:28;-4.30;99.90
26745;DHT22;14342;50.960;13.880;2022-12-18T02:17:30;-4.30;99.90
26745;DHT22;14342;50.960;13.880;2022-12-18T02:18:37;-4.40;99.90
26745;DHT22;14342;50.960;13.880;2022-12-18T02:19:43;-4.50;99.90
26745;DHT22;14342;50.960;13.880;2022-12-18T02:20:47;-4.60;99.90
26745;DHT22;14342;50.960;13.880;2022-12-18T02:21:51;-4.80;99.90
26745;DHT22;14342;50.960;13.880;2022-12-18T02:23:01;-5.00;99.90
26745;DHT22;14342;50.960;13.880;2022-12-18T02:24:10;-5.30;99.90
26745;DHT22;14342;50.960;13.880;2022-12-18T02:25:19;-5.60;99.90
26745;DHT22;14342;50.960;13.880;2022-12-18T02:26:24;-5.80;99.90
26745;DHT22;14342;50.960;13.880;2022-12-18T02:27:27;-5.90;99.90
26745;DHT22;14342;50.960;13.880;2022-12-18T02:28:30;-6.00;99.90
26745;DHT22;14342;50.960;13.880;2022-12-18T02:29:34;-5.90;99.90
26745;DHT22;14342;50.960;13.880;2022-12-18T02:30:37;-5.80;99.90
26745;DHT22;14342;50.960;13.880;2022-12-18T02:31:40;-5.80;99.90
26745;DHT22;14342;50.960;13.880;2022-12-18T02:32:43;-5.60;99.90
26745;DHT22;14342;50.960;13.880;2022-12-18T02:33:47;-5.90;99.90
26745;DHT22;14342;50.960;13.880;2022-12-18T02:34:49;-6.00;99.90
26745;DHT22;14342;50.960;13.880;2022-12-18T02:35:52;-6.00;99.90
26745;DHT22;14342;50.960;13.880;2022-12-18T02:36:54;-5.90;99.90
26745;DHT22;14342;50.960;13.880;2022-12-18T02:37:56;-5.80;99.90
26745;DHT22;14342;50.960;13.880;2022-12-18T02:38:58;-5.70;99.90
26745;DHT22;14342;50.960;13.880;2022-12-18T02:40:01;-5.70;99.90
26745;DHT22;14342;50.960;13.880;2022-12-18T02:41:03;-5.80;99.90
26745;DHT22;14342;50.960;13.880;2022-12-18T02:42:06;-5.80;99.90
26745;DHT22;14342;50.960;13.880;2022-12-18T02:43:08;-5.90;99.90
26745;DHT22;14342;50.960;13.880;2022-12-18T02:44:11;-6.00;99.90
26745;DHT22;14342;50.960;13.880;2022-12-18T02:45:12;-6.10;99.90
26745;DHT22;14342;50.960;13.880;2022-12-18T02:46:25;-6.50;99.90
26745;DHT22;14342;50.960;13.880;2022-12-18T02:47:27;-6.70;99.90
26745;DHT22;14342;50.960;13.880;2022-12-18T02:48:31;-6.90;99.90
26745;DHT22;14342;50.960;13.880;2022-12-18T02:49:34;-6.60;99.90
26745;DHT22;14342;50.960;13.880;2022-12-18T02:50:38;-6.90;99.90
26745;DHT22;14342;50.960;13.880;2022-12-18T02:51:44;-6.80;99.90
26745;DHT22;14342;50.960;13.880;2022-12-18T02:52:50;-6.70;99.90
26745;DHT22;14342;50.960;13.880;2022-12-18T02:53:53;-6.60;99.90
26745;DHT22;14342;50.960;13.880;2022-12-18T02:55:00;-6.60;99.90
26745;DHT22;14342;50.960;13.880;2022-12-18T02:56:06;-6.80;99.90
26745;DHT22;14342;50.960;13.880;2022-12-18T02:57:13;-6.90;99.90
26745;DHT22;14342;50.960;13.880;2022-12-18T02:58:16;-6.90;99.90
26745;DHT22;14342;50.960;13.880;2022-12-18T02:59:21;-7.00;99.90
26745;DHT22;14342;50.960;13.880;2022-12-18T03:00:26;-7.00;99.90
26745;DHT22;14342;50.960;13.880;2022-12-18T03:01:30;-6.80;99.90
26745;DHT22;14342;50.960;13.880;2022-12-18T03:02:36;-6.90;99.90
26745;DHT22;14342;50.960;13.880;2022-12-18T03:03:38;-6.80;99.90
26745;DHT22;14342;50.960;13.880;2022-12-18T03:04:41;-6.50;99.90
26745;DHT22;14342;50.960;13.880;2022-12-18T03:05:47;-6.20;99.90
26745;DHT22;14342;50.960;13.880;2022-12-18T03:06:51;-6.10;99.90
26745;DHT22;14342;50.960;13.880;2022-12-18T03:07:56;-6.00;99.90
26745;DHT22;14342;50.960;13.880;2022-12-18T03:08:58;-6.00;99.90
26745;DHT22;14342;50.960;13.880;2022-12-18T03:10:00;-5.90;99.90
26745;DHT22;14342;50.960;13.880;2022-12-18T03:11:03;-5.90;99.90
26745;DHT22;14342;50.960;13.880;2022-12-18T03:12:07;-5.70;99.90
26745;DHT22;14342;50.960;13.880;2022-12-18T03:13:27;-5.70;99.90
26745;DHT22;14342;50.960;13.880;2022-12-18T03:14:30;-5.60;99.90
26745;DHT22;14342;50.960;13.880;2022-12-18T03:15:34;-5.60;99.90
26745;DHT22;14342;50.960;13.880;2022-12-18T03:16:36;-5.40;99.90
26745;DHT22;14342;50.960;13.880;2022-12-18T03:17:38;-5.70;99.90
26745;DHT22;14342;50.960;13.880;2022-12-18T03:18:42;-6.00;99.90
26745;DHT22;14342;50.960;13.880;2022-12-18T03:19:45;-6.20;99.90
26745;DHT22;14342;50.960;13.880;2022-12-18T03:20:47;-6.20;99.90
26745;DHT22;14342;50.960;13.880;2022-12-18T03:21:51;-6.40;99.90
26745;DHT22;14342;50.960;13.880;2022-12-18T03:22:59;-6.40;99.90
26745;DHT22;14342;50.960;13.880;2022-12-18T03:24:00;-6.40;99.90
26745;DHT22;14342;50.960;13.880;2022-12-18T03:25:04;-6.30;99.90
26745;DHT22;14342;50.960;13.880;2022-12-18T03:26:07;-6.30;99.90
26745;DHT22;14342;50.960;13.880;2022-12-18T03:27:10;-6.10;99.90
26745;DHT22;14342;50.960;13.880;2022-12-18T03:28:12;-6.00;99.90
26745;DHT22;14342;50.960;13.880;2022-12-18T03:29:16;-5.90;99.90
26745;DHT22;14342;50.960;13.880;2022-12-18T03:30:18;-5.80;99.90
26745;DHT22;14342;50.960;13.880;2022-12-18T03:31:20;-5.70;99.90
26745;DHT22;14342;50.960;13.880;2022-12-18T03:32:23;-5.70;99.90
26745;DHT22;14342;50.960;13.880;2022-12-18T03:33:27;-5.60;99.90
26745;DHT22;14342;50.960;13.880;2022-12-18T03:34:29;-5.60;99.90
26745;DHT22;14342;50.960;13.880;2022-12-18T03:35:32;-5.50;99.90
26745;DHT22;14342;50.960;13.880;2022-12-18T03:36:34;-5.40;99.90
26745;DHT22;14342;50.960;13.880;2022-12-18T03:37:36;-5.30;99.90
26745;DHT22;14342;50.960;13.880;2022-12-18T03:38:36;-5.20;99.90
26745;DHT22;14342;50.960;13.880;2022-12-18T03:39:38;-5.10;99.90
26745;DHT22;14342;50.960;13.880;2022-12-18T03:40:49;-5.20;99.90
26745;DHT22;14342;50.960;13.880;2022-12-18T03:41:52;-5.20;99.90
26745;DHT22;14342;50.960;13.880;2022-12-18T03:42:56;-5.20;99.90
26745;DHT22;14342;50.960;13.880;2022-12-18T03:44:01;-5.20;99.90
26745;DHT22;14342;50.960;13.880;2022-12-18T03:45:07;-5.20;99.90
26745;DHT22;14342;50.960;13.880;2022-12-18T03:46:11;-5.10;99.90
26745;DHT22;14342;50.960;13.880;2022-12-18T03:47:15;-5.00;99.90
26745;DHT22;14342;50.960;13.880;2022-12-18T03:48:19;-5.00;99.90
26745;DHT22;14342;50.960;13.880;2022-12-18T03:49:23;-4.90;99.90
26745;DHT22;14342;50.960;13.880;2022-12-18T03:50:27;-5.00;99.90
26745;DHT22;14342;50.960;13.880;2022-12-18T03:51:32;-5.10;99.90
26745;DHT22;14342;50.960;13.880;2022-12-18T03:52:37;-5.30;99.90
26745;DHT22;14342;50.960;13.880;2022-12-18T03:53:39;-5.50;99.90
26745;DHT22;14342;50.960;13.880;2022-12-18T03:54:41;-5.60;99.90
26745;DHT22;14342;50.960;13.880;2022-12-18T03:55:43;-5.50;99.90
26745;DHT22;14342;50.960;13.880;2022-12-18T03:56:45;-5.80;99.90
26745;DHT22;14342;50.960;13.880;2022-12-18T03:57:47;-5.80;99.90
26745;DHT22;14342;50.960;13.880;2022-12-18T03:58:49;-5.70;99.90
26745;DHT22;14342;50.960;13.880;2022-12-18T03:59:51;-6.20;99.90
26745;DHT22;14342;50.960;13.880;2022-12-18T04:00:56;-6.30;99.90
26745;DHT22;14342;50.960;13.880;2022-12-18T04:01:57;-6.50;99.90
26745;DHT22;14342;50.960;13.880;2022-12-18T04:03:00;-6.70;99.90
26745;DHT22;14342;50.960;13.880;2022-12-18T04:04:02;-6.70;99.90
26745;DHT22;14342;50.960;13.880;2022-12-18T04:05:05;-7.00;99.90
26745;DHT22;14342;50.960;13.880;2022-12-18T04:06:07;-7.20;99.90
26745;DHT22;14342;50.960;13.880;2022-12-18T04:07:09;-7.30;99.90
26745;DHT22;14342;50.960;13.880;2022-12-18T04:08:10;-7.20;99.90
26745;DHT22;14342;50.960;13.880;2022-12-18T04:09:12;-7.50;99.90
26745;DHT22;14342;50.960;13.880;2022-12-18T04:10:13;-7.50;99.90
26745;DHT22;14342;50.960;13.880;2022-12-18T04:11:15;-7.50;99.90
26745;DHT22;14342;50.960;13.880;2022-12-18T04:12:16;-7.50;99.90
26745;DHT22;14342;50.960;13.880;2022-12-18T04:13:21;-7.50;99.90
26745;DHT22;14342;50.960;13.880;2022-12-18T04:14:22;-7.50;99.90
26745;DHT22;14342;50.960;13.880;2022-12-18T04:15:23;-7.50;99.90
26745;DHT22;14342;50.960;13.880;2022-12-18T04:16:26;-7.40;99.90
26745;DHT22;14342;50.960;13.880;2022-12-18T04:17:27;-7.40;99.90
26745;DHT22;14342;50.960;13.880;2022-12-18T04:18:28;-7.40;99.90
26745;DHT22;14342;50.960;13.880;2022-12-18T04:19:30;-7.40;99.90
26745;DHT22;14342;50.960;13.880;2022-12-18T04:20:30;-7.40;99.90
26745;DHT22;14342;50.960;13.880;2022-12-18T04:21:32;-7.50;99.90
26745;DHT22;14342;50.960;13.880;2022-12-18T04:22:32;-7.40;99.90
26745;DHT22;14342;50.960;13.880;2022-12-18T04:23:34;-7.60;99.90
26745;DHT22;14342;50.960;13.880;2022-12-18T04:24:35;-7.60;99.90
26745;DHT22;14342;50.960;13.880;2022-12-18T04:25:36;-7.60;99.90
26745;DHT22;14342;50.960;13.880;2022-12-18T04:26:37;-7.60;99.90
26745;DHT22;14342;50.960;13.880;2022-12-18T04:27:39;-7.60;99.90
26745;DHT22;14342;50.960;13.880;2022-12-18T04:28:39;-7.60;99.90
26745;DHT22;14342;50.960;13.880;2022-12-18T04:29:41;-7.50;99.90
26745;DHT22;14342;50.960;13.880;2022-12-18T04:30:41;-7.50;99.90
26745;DHT22;14342;50.960;13.880;2022-12-18T04:31:44;-7.40;99.90
26745;DHT22;14342;50.960;13.880;2022-12-18T04:32:45;-7.40;99.90
26745;DHT22;14342;50.960;13.880;2022-12-18T04:33:46;-7.40;99.90
26745;DHT22;14342;50.960;13.880;2022-12-18T04:34:47;-7.40;99.90
26745;DHT22;14342;50.960;13.880;2022-12-18T04:35:49;-7.20;99.90
26745;DHT22;14342;50.960;13.880;2022-12-18T04:36:49;-7.50;99.90
26745;DHT22;14342;50.960;13.880;2022-12-18T04:37:51;-7.60;99.90
26745;DHT22;14342;50.960;13.880;2022-12-18T04:38:51;-7.60;99.90
26745;DHT22;14342;50.960;13.880;2022-12-18T04:39:53;-7.70;99.90
26745;DHT22;14342;50.960;13.880;2022-12-18T04:40:54;-7.70;99.90
26745;DHT22;14342;50.960;13.880;2022-12-18T04:41:55;-7.60;99.90
26745;DHT22;14342;50.960;13.880;2022-12-18T04:42:56;-7.30;99.90
26745;DHT22;14342;50.960;13.880;2022-12-18T04:43:57;-7.60;99.90
26745;DHT22;14342;50.960;13.880;2022-12-18T04:44:58;-7.60;99.90
26745;DHT22;14342;50.960;13.880;2022-12-18T04:46:03;-7.50;99.90
26745;DHT22;14342;50.960;13.880;2022-12-18T04:47:05;-7.40;99.90
26745;DHT22;14342;50.960;13.880;2022-12-18T04:48:07;-7.40;99.90
26745;DHT22;14342;50.960;13.880;2022-12-18T04:49:08;-7.50;99.90
26745;DHT22;14342;50.960;13.880;2022-12-18T04:50:10;-7.50;99.90
26745;DHT22;14342;50.960;13.880;2022-12-18T04:51:11;-7.50;99.90
26745;DHT22;14342;50.960;13.880;2022-12-18T04:52:12;-7.50;99.90
26745;DHT22;14342;50.960;13.880;2022-12-18T04:53:13;-7.60;99.90
26745;DHT22;14342;50.960;13.880;2022-12-18T04:54:15;-7.60;99.90
26745;DHT22;14342;50.960;13.880;2022-12-18T04:55:15;-7.60;99.90
26745;DHT22;14342;50.960;13.880;2022-12-18T04:56:17;-7.60;99.90
26745;DHT22;14342;50.960;13.880;2022-12-18T04:57:17;-7.60;99.90
26745;DHT22;14342;50.960;13.880;2022-12-18T04:58:19;-7.60;99.90
26745;DHT22;14342;50.960;13.880;2022-12-18T04:59:20;-7.60;99.90
26745;DHT22;14342;50.960;13.880;2022-12-18T05:00:21;-7.50;99.90
26745;DHT22;14342;50.960;13.880;2022-12-18T05:01:22;-7.40;99.90
26745;DHT22;14342;50.960;13.880;2022-12-18T05:02:25;-7.40;99.90
26745;DHT22;14342;50.960;13.880;2022-12-18T05:03:25;-7.50;99.90
26745;DHT22;14342;50.960;13.880;2022-12-18T05:04:27;-7.40;99.90
26745;DHT22;14342;50.960;13.880;2022-12-18T05:05:28;-7.30;99.90
26745;DHT22;14342;50.960;13.880;2022-12-18T05:06:29;-7.40;99.90
26745;DHT22;14342;50.960;13.880;2022-12-18T05:07:30;-7.40;99.90
26745;DHT22;14342;50.960;13.880;2022-12-18T05:08:32;-7.40;99.90
26745;DHT22;14342;50.960;13.880;2022-12-18T05:09:32;-7.20;99.90
26745;DHT22;14342;50.960;13.880;2022-12-18T05:10:34;-7.50;99.90
26745;DHT22;14342;50.960;13.880;2022-12-18T05:11:34;-7.50;99.90
26745;DHT22;14342;50.960;13.880;2022-12-18T05:12:36;-7.50;99.90
26745;DHT22;14342;50.960;13.880;2022-12-18T05:13:57;-7.60;99.90
26745;DHT22;14342;50.960;13.880;2022-12-18T05:14:58;-7.60;99.90
26745;DHT22;14342;50.960;13.880;2022-12-18T05:15:59;-7.30;99.90
26745;DHT22;14342;50.960;13.880;2022-12-18T05:17:01;-7.50;99.90
26745;DHT22;14342;50.960;13.880;2022-12-18T05:18:03;-7.50;99.90
26745;DHT22;14342;50.960;13.880;2022-12-18T05:19:05;-7.40;99.90
26745;DHT22;14342;50.960;13.880;2022-12-18T05:20:05;-7.40;99.90
26745;DHT22;14342;50.960;13.880;2022-12-18T05:21:07;-7.50;99.90
26745;DHT22;14342;50.960;13.880;2022-12-18T05:22:08;-7.40;99.90
26745;DHT22;14342;50.960;13.880;2022-12-18T05:23:09;-7.20;99.90
26745;DHT22;14342;50.960;13.880;2022-12-18T05:24:10;-7.30;99.90
26745;DHT22;14342;50.960;13.880;2022-12-18T05:25:12;-7.20;99.90
26745;DHT22;14342;50.960;13.880;2022-12-18T05:26:14;-7.00;99.90
26745;DHT22;14342;50.960;13.880;2022-12-18T05:27:16;-7.20;99.90
26745;DHT22;14342;50.960;13.880;2022-12-18T05:28:19;-7.20;99.90
26745;DHT22;14342;50.960;13.880;2022-12-18T05:29:21;-7.20;99.90
26745;DHT22;14342;50.960;13.880;2022-12-18T05:30:21;-7.20;99.90
26745;DHT22;14342;50.960;13.880;2022-12-18T05:31:23;-7.30;99.90
26745;DHT22;14342;50.960;13.880;2022-12-18T05:32:24;-7.30;99.90
26745;DHT22;14342;50.960;13.880;2022-12-18T05:33:28;-7.40;99.90
26745;DHT22;14342;50.960;13.880;2022-12-18T05:34:29;-7.50;99.90
26745;DHT22;14342;50.960;13.880;2022-12-18T05:35:30;-7.50;99.90
26745;DHT22;14342;50.960;13.880;2022-12-18T05:36:31;-7.50;99.90
26745;DHT22;14342;50.960;13.880;2022-12-18T05:37:33;-7.50;99.90
26745;DHT22;14342;50.960;13.880;2022-12-18T05:38:34;-7.50;99.90
26745;DHT22;14342;50.960;13.880;2022-12-18T05:39:36;-7.40;99.90
26745;DHT22;14342;50.960;13.880;2022-12-18T05:40:36;-7.30;99.90
26745;DHT22;14342;50.960;13.880;2022-12-18T05:41:38;-7.40;99.90
26745;DHT22;14342;50.960;13.880;2022-12-18T05:42:38;-7.30;99.90
26745;DHT22;14342;50.960;13.880;2022-12-18T05:43:40;-7.40;99.90
26745;DHT22;14342;50.960;13.880;2022-12-18T05:44:41;-7.40;99.90
26745;DHT22;14342;50.960;13.880;2022-12-18T05:45:42;-7.40;99.90
26745;DHT22;14342;50.960;13.880;2022-12-18T05:46:43;-7.30;99.90
26745;DHT22;14342;50.960;13.880;2022-12-18T05:47:44;-7.40;99.90
26745;DHT22;14342;50.960;13.880;2022-12-18T05:48:46;-7.40;99.90
26745;DHT22;14342;50.960;13.880;2022-12-18T05:49:48;-7.40;99.90
26745;DHT22;14342;50.960;13.880;2022-12-18T05:50:49;-7.50;99.90
26745;DHT22;14342;50.960;13.880;2022-12-18T05:51:51;-7.20;99.90
26745;DHT22;14342;50.960;13.880;2022-12-18T05:52:51;-7.30;99.90
26745;DHT22;14342;50.960;13.880;2022-12-18T05:53:53;-7.30;99.90
26745;DHT22;14342;50.960;13.880;2022-12-18T05:54:53;-7.30;99.90
26745;DHT22;14342;50.960;13.880;2022-12-18T05:55:59;-7.20;99.90
26745;DHT22;14342;50.960;13.880;2022-12-18T05:57:00;-7.10;99.90
26745;DHT22;14342;50.960;13.880;2022-12-18T05:58:02;-7.10;99.90
26745;DHT22;14342;50.960;13.880;2022-12-18T05:59:02;-7.00;99.90
26745;DHT22;14342;50.960;13.880;2022-12-18T06:00:04;-6.70;99.90
26745;DHT22;14342;50.960;13.880;2022-12-18T06:01:06;-6.90;99.90
26745;DHT22;14342;50.960;13.880;2022-12-18T06:02:08;-6.80;99.90
26745;DHT22;14342;50.960;13.880;2022-12-18T06:03:09;-6.70;99.90
26745;DHT22;14342;50.960;13.880;2022-12-18T06:04:12;-6.60;99.90
26745;DHT22;14342;50.960;13.880;2022-12-18T06:05:13;-6.60;99.90
26745;DHT22;14342;50.960;13.880;2022-12-18T06:06:15;-6.40;99.90
26745;DHT22;14342;50.960;13.880;2022-12-18T06:07:16;-6.40;99.90
26745;DHT22;14342;50.960;13.880;2022-12-18T06:08:17;-6.30;99.90
26745;DHT22;14342;50.960;13.880;2022-12-18T06:09:18;-6.00;99.90
26745;DHT22;14342;50.960;13.880;2022-12-18T06:10:19;-6.20;99.90
26745;DHT22;14342;50.960;13.880;2022-12-18T06:11:21;-6.20;99.90
26745;DHT22;14342;50.960;13.880;2022-12-18T06:12:23;-6.10;99.90
26745;DHT22;14342;50.960;13.880;2022-12-18T06:13:23;-6.00;99.90
26745;DHT22;14342;50.960;13.880;2022-12-18T06:14:25;-5.90;99.90
26745;DHT22;14342;50.960;13.880;2022-12-18T06:15:25;-5.90;99.90
26745;DHT22;14342;50.960;13.880;2022-12-18T06:16:27;-6.10;99.90
26745;DHT22;14342;50.960;13.880;2022-12-18T06:17:28;-6.20;99.90
26745;DHT22;14342;50.960;13.880;2022-12-18T06:18:30;-6.30;99.90
26745;DHT22;14342;50.960;13.880;2022-12-18T06:19:32;-6.30;99.90
26745;DHT22;14342;50.960;13.880;2022-12-18T06:20:33;-6.30;99.90
26745;DHT22;14342;50.960;13.880;2022-12-18T06:21:36;-6.20;99.90
26745;DHT22;14342;50.960;13.880;2022-12-18T06:22:38;-6.20;99.90
26745;DHT22;14342;50.960;13.880;2022-12-18T06:23:38;-6.20;99.90
26745;DHT22;14342;50.960;13.880;2022-12-18T06:24:40;-6.30;99.90
26745;DHT22;14342;50.960;13.880;2022-12-18T06:25:41;-6.40;99.90
26745;DHT22;14342;50.960;13.880;2022-12-18T06:26:42;-6.40;99.90
26745;DHT22;14342;50.960;13.880;2022-12-18T06:27:43;-6.40;99.90